createdAt,value
2018-01-27T19:31:35.624Z,68.70
2018-01-27T19:34:11.580Z,69.10
2018-01-27T19:36:45.892Z,68.80
2018-01-27T19:39:19.538Z,70.20
2018-01-27T19:41:53.361Z,69.00
2018-01-27T19:44:28.545Z,69.00
2018-01-27T19:47:02.927Z,69.00
2018-01-27T19:49:37.485Z,69.00
2018-01-27T19:52:11.821Z,69.60
2018-01-27T19:54:46.484Z,69.30
2018-01-27T19:57:20.385Z,69.70
2018-01-27T19:59:54.982Z,69.90
2018-01-27T20:02:28.862Z,68.80
2018-01-27T20:05:03.312Z,69.70
2018-01-27T20:07:38.008Z,69.90
2018-01-27T20:10:11.906Z,69.40
2018-01-27T20:12:46.431Z,70.10
2018-01-27T20:15:21.180Z,70.10
2018-01-27T20:17:55.778Z,70.00
2018-01-27T20:20:29.716Z,69.30
2018-01-27T20:23:05.066Z,69.80
2018-01-27T20:25:39.159Z,69.30
2018-01-27T20:28:12.992Z,69.50
2018-01-27T20:30:48.353Z,70.40
2018-01-27T20:33:22.345Z,69.70
2018-01-27T20:35:58.148Z,69.80
2018-01-27T20:38:31.787Z,70.00
2018-01-27T20:41:06.713Z,69.80
2018-01-27T20:43:41.936Z,70.30
2018-01-27T20:46:16.708Z,70.20
2018-01-27T20:48:51.504Z,70.10
2018-01-27T20:51:26.232Z,69.40
2018-01-27T20:54:00.208Z,69.00
2018-01-27T20:56:34.564Z,69.20
2018-01-27T20:59:08.589Z,68.50
2018-01-27T21:01:43.422Z,68.50
2018-01-27T21:04:18.732Z,68.80
2018-01-27T21:06:53.904Z,68.30
2018-01-27T21:09:29.094Z,68.30
2018-01-27T21:12:04.326Z,68.30
2018-01-27T21:14:38.927Z,68.30
2018-01-27T21:17:14.689Z,68.60
2018-01-27T21:19:49.048Z,68.90
2018-01-27T21:22:23.776Z,69.00
2018-01-27T21:24:58.504Z,69.30
2018-01-27T21:27:32.413Z,68.70
2018-01-27T21:30:07.764Z,69.20
2018-01-27T21:32:42.356Z,69.20
2018-01-27T21:35:16.398Z,68.70
2018-01-27T21:37:50.094Z,68.20
2018-01-27T21:40:24.536Z,68.60
2018-01-27T21:42:59.135Z,68.60
2018-01-27T21:45:33.874Z,68.70
2018-01-27T21:48:07.781Z,67.80
2018-01-27T21:50:42.169Z,68.40
2018-01-27T21:53:16.215Z,67.50
2018-01-27T21:55:51.335Z,67.30
2018-01-27T21:58:26.388Z,68.10
2018-01-27T22:01:00.877Z,67.90
2018-01-27T22:03:35.651Z,67.50
2018-01-27T22:06:09.980Z,66.80
2018-01-27T22:08:45.197Z,67.50
2018-01-27T22:13:54.760Z,66.80
2018-01-27T22:16:28.597Z,66.60
2018-01-27T22:19:03.213Z,66.60
2018-01-27T22:21:37.790Z,66.70
2018-01-27T22:24:11.881Z,66.20
2018-01-27T22:26:45.806Z,66.00
2018-01-27T22:29:21.015Z,67.60
2018-01-27T22:31:56.050Z,66.70
2018-01-27T22:34:29.924Z,65.70
2018-01-27T22:37:04.420Z,66.40
2018-01-27T22:39:38.378Z,65.80
2018-01-27T22:42:12.140Z,65.50
2018-01-27T22:44:45.820Z,65.90
2018-01-27T22:47:20.443Z,66.30
2018-01-27T22:49:55.063Z,66.50
2018-01-27T22:52:29.642Z,66.80
2018-01-27T22:55:03.451Z,67.40
2018-01-27T23:00:13.685Z,69.70
2018-01-27T23:02:47.573Z,69.10
2018-01-27T23:05:21.522Z,69.40
2018-01-27T23:07:55.080Z,69.00
2018-01-27T23:10:29.505Z,69.40
2018-01-27T23:13:04.248Z,68.80
2018-01-27T23:15:44.439Z,69.00
2018-01-27T23:18:19.735Z,68.50
2018-01-27T23:20:54.397Z,68.70
2018-01-27T23:23:30.093Z,68.50
2018-01-27T23:26:04.965Z,69.30
2018-01-27T23:28:38.897Z,69.30
2018-01-27T23:31:12.562Z,70.00
2018-01-27T23:33:48.016Z,68.80
2018-01-27T23:36:21.823Z,68.70
2018-01-27T23:38:56.545Z,67.50
2018-01-27T23:41:30.566Z,67.50
2018-01-27T23:44:04.172Z,67.00
2018-01-27T23:46:37.926Z,67.40
2018-01-27T23:49:12.288Z,67.60
2018-01-27T23:51:46.207Z,67.60
2018-01-27T23:54:20.828Z,67.50
2018-01-27T23:56:56.161Z,67.50
2018-01-27T23:59:30.995Z,67.90
